Time;durP1;ratioP1;P1;durP2;ratioP2;P2;SDS_P1;SDS_P2;PMS_P1;PMS_P2;Temp;Humidity;BMP_temperature;BMP_pressure;BME280_temperature;BME280_humidity;BME280_pressure;Samples;Min_cycle;Max_cycle;Signal;HPM_P1;HPM_P2
2022/10/24 00:01:19;;;;;;;10.43;3.15;;;;;;;15.53;100.00;100296.09;4716217;30;20413;-47
2022/10/24 00:03:48;;;;;;;9.95;3.20;;;;;;;15.51;100.00;100292.03;4723052;30;20056;-46
2022/10/24 00:06:16;;;;;;;12.95;3.78;;;;;;;15.49;100.00;100283.31;4719690;30;20531;-50
2022/10/24 00:08:44;;;;;;;12.75;3.78;;;;;;;15.47;100.00;100283.66;4708247;30;20056;-46
2022/10/24 00:11:14;;;;;;;8.73;3.05;;;;;;;15.47;100.00;100280.09;4719356;30;20049;-47
2022/10/24 00:13:42;;;;;;;11.88;3.17;;;;;;;15.46;100.00;100283.94;4719444;30;20045;-47
2022/10/24 00:16:10;;;;;;;15.70;3.50;;;;;;;15.43;100.00;100279.09;4703697;30;20476;-47
2022/10/24 00:18:38;;;;;;;10.55;3.00;;;;;;;15.42;100.00;100277.47;4719632;30;20072;-47
2022/10/24 00:21:06;;;;;;;10.82;3.28;;;;;;;15.42;100.00;100277.47;4719837;30;20049;-47
2022/10/24 00:23:34;;;;;;;11.52;3.20;;;;;;;15.43;100.00;100277.16;4703987;30;20113;-47
2022/10/24 00:26:03;;;;;;;8.02;2.80;;;;;;;15.43;100.00;100268.91;4718884;30;20052;-48
2022/10/24 00:28:33;;;;;;;11.20;3.10;;;;;;;15.43;100.00;100265.38;4704381;30;20508;-47
2022/10/24 00:31:01;;;;;;;10.13;3.13;;;;;;;15.43;100.00;100265.38;4703847;30;20103;-46
2022/10/24 00:33:28;;;;;;;7.28;2.97;;;;;;;15.42;100.00;100267.31;4718140;30;20081;-47
2022/10/24 00:35:56;;;;;;;11.57;3.00;;;;;;;15.43;100.00;100262.63;4718381;30;20103;-47
2022/10/24 00:38:24;;;;;;;8.80;2.80;;;;;;;15.44;100.00;100273.28;4703697;30;20053;-47
2022/10/24 00:40:51;;;;;;;11.27;2.90;;;;;;;15.45;100.00;100265.88;4703541;30;20049;-47
2022/10/24 00:43:22;;;;;;;12.05;3.10;;;;;;;15.46;100.00;100261.97;4719365;30;20140;-48
2022/10/24 01:14:22;;;;;;;10.15;2.88;;;;;;;15.52;100.00;100244.25;4714468;30;20068;-46
2022/10/24 01:17:25;;;;;;;11.90;2.87;;;;;;;15.51;100.00;100245.38;4699318;30;20464;-48
2022/10/24 01:20:11;;;;;;;10.00;2.70;;;;;;;15.49;100.00;100244.88;4685955;30;20366;-48
2022/10/24 01:23:06;;;;;;;9.52;2.70;;;;;;;15.47;100.00;100247.16;4701668;30;20061;-45
2022/10/24 01:25:48;;;;;;;13.73;3.28;;;;;;;15.46;100.00;100248.25;4701264;30;20045;-51
2022/10/24 01:28:37;;;;;;;7.43;2.88;;;;;;;15.45;100.00;100252.13;4701096;30;20077;-48
2022/10/24 01:31:10;;;;;;;11.73;3.22;;;;;;;15.45;100.00;100243.91;4698619;30;20153;-50
2022/10/24 01:33:48;;;;;;;10.95;3.33;;;;;;;15.44;100.00;100239.53;4714729;30;20510;-46
2022/10/24 01:36:24;;;;;;;10.85;2.97;;;;;;;15.44;100.00;100242.25;4686680;30;20054;-47
2022/10/24 01:38:56;;;;;;;11.00;3.38;;;;;;;15.43;100.00;100237.91;4710070;30;20053;-45
2022/10/24 01:41:27;;;;;;;9.10;3.25;;;;;;;15.43;100.00;100237.91;4699513;30;20532;-46
2022/10/24 01:44:06;;;;;;;6.68;2.65;;;;;;;15.42;100.00;100239.84;4682996;30;20050;-48
2022/10/24 01:46:51;;;;;;;7.78;2.67;;;;;;;15.43;100.00;100235.16;4699138;30;20462;-47
2022/10/24 01:49:22;;;;;;;5.90;2.60;;;;;;;15.45;100.00;100230.16;4711333;30;20054;-45
2022/10/24 01:51:52;;;;;;;7.50;2.60;;;;;;;15.45;100.00;100232.91;4699375;30;20370;-48
2022/10/24 01:54:20;;;;;;;11.18;3.15;;;;;;;15.46;100.00;100231.78;4699955;30;20060;-50
2022/10/24 01:56:48;;;;;;;6.05;2.47;;;;;;;15.47;100.00;100227.94;4700478;30;20103;-48
2022/10/24 01:59:27;;;;;;;11.02;2.95;;;;;;;15.49;100.00;100228.41;4700045;30;20132;-44
2022/10/24 02:02:03;;;;;;;7.72;2.88;;;;;;;15.49;100.00;100223.75;4700478;30;20062;-47
2022/10/24 02:04:32;;;;;;;4.95;2.40;;;;;;;15.51;100.00;100220.66;4700286;30;20473;-48
2022/10/24 02:07:02;;;;;;;8.00;3.00;;;;;;;15.51;100.00;100212.41;4699714;30;20049;-47
2022/10/24 02:09:30;;;;;;;6.82;2.90;;;;;;;15.51;100.00;100218.75;4698889;30;20089;-49
2022/10/24 02:11:59;;;;;;;9.02;2.63;;;;;;;15.53;100.00;100212.91;4691488;30;20046;-46
2022/10/24 02:14:54;;;;;;;10.63;3.05;;;;;;;15.53;100.00;100212.91;4699669;30;20054;-47
2022/10/24 02:17:21;;;;;;;7.13;2.63;;;;;;;15.53;99.07;100205.50;4700743;30;20112;-46
2022/10/24 02:19:49;;;;;;;9.55;2.58;;;;;;;15.52;98.59;100217.59;4716831;30;20124;-48
2022/10/24 02:22:26;;;;;;;10.10;2.95;;;;;;;15.53;99.12;100212.91;4701902;30;20107;-47
2022/10/24 02:25:03;;;;;;;6.20;2.47;;;;;;;15.54;98.50;100209.06;4702393;30;20087;-47
2022/10/24 02:28:05;;;;;;;8.07;2.58;;;;;;;15.54;100.00;100209.06;4701546;30;20501;-47
2022/10/24 02:30:37;;;;;;;7.97;2.40;;;;;;;15.55;99.30;100211.47;4701099;30;20049;-46
2022/10/24 02:33:06;;;;;;;5.57;2.30;;;;;;;15.58;99.25;100207.28;4701875;30;20057;-46
2022/10/24 02:35:35;;;;;;;7.53;2.42;;;;;;;15.57;98.30;100202.13;4717193;30;20053;-47
2022/10/24 02:38:09;;;;;;;10.27;2.88;;;;;;;15.59;97.72;100197.13;4716643;30;20724;-48
2022/10/24 02:40:37;;;;;;;4.15;2.15;;;;;;;15.59;97.98;100206.19;4716322;30;20041;-48
2022/10/24 02:43:06;;;;;;;7.00;2.10;;;;;;;15.59;98.18;100205.38;4700224;30;20045;-46
2022/10/24 02:45:34;;;;;;;5.07;2.55;;;;;;;15.59;97.59;100199.88;4700621;30;20574;-47
2022/10/24 02:48:05;;;;;;;5.57;2.40;;;;;;;15.56;97.94;100204.03;4702152;30;20045;-46
2022/10/24 02:50:33;;;;;;;6.15;2.50;;;;;;;15.54;97.40;100207.13;4701059;30;20080;-48
2022/10/24 02:53:00;;;;;;;8.95;3.00;;;;;;;15.53;96.54;100218.41;4701515;30;20103;-44
2022/10/24 02:55:28;;;;;;;9.18;2.72;;;;;;;15.52;96.42;100209.38;4717626;30;20057;-44
2022/10/24 02:57:55;;;;;;;5.43;2.45;;;;;;;15.53;97.37;100202.75;4716055;30;20103;-47
2022/10/24 03:00:24;;;;;;;4.30;2.20;;;;;;;15.54;97.14;100196.13;4702584;30;20405;-48
2022/10/24 03:02:51;;;;;;;8.05;2.30;;;;;;;15.60;97.68;100201.50;4716210;30;20075;-47
2022/10/24 03:05:19;;;;;;;4.45;1.98;;;;;;;15.60;96.53;100212.47;4716881;30;20037;-47
2022/10/24 03:07:46;;;;;;;11.27;2.13;;;;;;;15.60;95.45;100206.97;4716275;30;20057;-45
2022/10/24 03:10:14;;;;;;;9.30;2.30;;;;;;;15.62;95.71;100215.72;4716848;30;20417;-47
2022/10/24 03:12:42;;;;;;;9.25;2.50;;;;;;;15.62;96.90;100219.25;4701811;30;20107;-48
2022/10/24 03:15:10;;;;;;;7.20;2.70;;;;;;;15.60;95.73;100221.50;4716340;30;20064;-50
2022/10/24 03:17:38;;;;;;;3.75;2.15;;;;;;;15.60;95.57;100206.97;4716275;30;20045;-50
2022/10/24 03:20:06;;;;;;;7.50;2.20;;;;;;;15.58;94.49;100215.53;4717244;30;20053;-49
2022/10/24 03:22:34;;;;;;;8.07;2.08;;;;;;;15.56;94.17;100215.03;4716912;30;20416;-49
2022/10/24 03:25:02;;;;;;;4.65;2.05;;;;;;;15.58;95.63;100215.53;4716726;30;20501;-48
2022/10/24 03:27:30;;;;;;;8.13;2.40;;;;;;;15.56;95.06;100212.28;4717002;30;20068;-49
2022/10/24 03:29:57;;;;;;;7.30;2.55;;;;;;;15.57;94.54;100216.66;4700653;30;20103;-48
2022/10/24 03:32:25;;;;;;;4.72;2.35;;;;;;;15.58;95.03;100212.78;4716671;30;20049;-47
2022/10/24 03:34:58;;;;;;;3.65;2.03;;;;;;;15.57;94.71;100207.63;4716846;30;20103;-47
2022/10/24 03:37:26;;;;;;;8.43;2.75;;;;;;;15.57;94.15;100207.63;4716444;30;20052;-47
2022/10/24 03:39:53;;;;;;;9.85;2.30;;;;;;;15.56;94.75;100206.78;4718215;30;20050;-47
2022/10/24 03:42:21;;;;;;;5.55;2.22;;;;;;;15.55;94.18;100202.44;4720476;30;20060;-48
2022/10/24 03:44:48;;;;;;;7.60;2.47;;;;;;;15.53;93.42;100201.94;4720072;30;20041;-47
2022/10/24 03:47:16;;;;;;;6.28;2.13;;;;;;;15.54;94.89;100209.06;4704621;30;20037;-47
2022/10/24 03:49:44;;;;;;;6.78;2.30;;;;;;;15.53;95.52;100207.44;4717923;30;20048;-45
2022/10/24 03:52:11;;;;;;;9.18;2.70;;;;;;;15.54;96.05;100204.38;4704624;30;20111;-45
2022/10/24 03:54:39;;;;;;;10.30;2.65;;;;;;;15.57;97.05;100191.94;4719986;30;20115;-46
2022/10/24 03:57:08;;;;;;;7.85;2.50;;;;;;;15.53;95.54;100201.94;4720152;30;20049;-44
2022/10/24 03:59:36;;;;;;;8.40;2.13;;;;;;;15.52;95.05;100200.34;4718010;30;20056;-50
2022/10/24 04:02:05;;;;;;;6.95;2.60;;;;;;;15.51;95.63;100195.94;4716505;30;20091;-48
2022/10/24 04:04:32;;;;;;;10.32;2.28;;;;;;;15.50;94.62;100202.56;4703704;30;20049;-48
2022/10/24 04:07:00;;;;;;;5.95;2.30;;;;;;;15.48;94.90;100205.63;4718766;30;20425;-48
2022/10/24 04:09:28;;;;;;;6.25;2.33;;;;;;;15.50;95.50;100202.56;4718810;30;20041;-48
2022/10/24 04:11:55;;;;;;;8.05;3.00;;;;;;;15.50;93.73;100195.16;4717753;30;20045;-47
2022/10/24 04:14:23;;;;;;;9.07;2.88;;;;;;;15.48;92.99;100204.81;4719705;30;20543;-47
2022/10/24 04:16:50;;;;;;;10.32;2.50;;;;;;;15.48;92.80;100204.81;4719923;30;20451;-48
2022/10/24 04:19:18;;;;;;;4.65;1.92;;;;;;;15.47;93.52;100198.53;4703595;30;20049;-48
2022/10/24 04:21:46;;;;;;;5.80;2.45;;;;;;;15.58;98.41;100199.03;4719303;30;20053;-47
2022/10/24 04:24:15;;;;;;;5.70;2.05;;;;;;;15.69;99.67;100200.38;4718613;30;20088;-48
2022/10/24 04:26:42;;;;;;;8.57;2.83;;;;;;;15.76;100.00;100189.78;4719569;30;20107;-48
2022/10/24 04:29:10;;;;;;;3.92;1.98;;;;;;;15.75;100.00;100193.66;4718381;30;20394;-49
2022/10/24 04:31:38;;;;;;;5.00;2.05;;;;;;;15.89;100.00;100189.97;4719194;30;20105;-47
2022/10/24 04:34:05;;;;;;;2.92;1.70;;;;;;;15.90;100.00;100194.38;4719111;30;20475;-47
2022/10/24 04:36:34;;;;;;;7.90;2.20;;;;;;;15.93;100.00;100193.72;4719729;30;20062;-49
2022/10/24 04:39:02;;;;;;;7.32;2.55;;;;;;;15.94;100.00;100192.56;4718361;30;20107;-47
2022/10/24 04:41:29;;;;;;;5.90;2.30;;;;;;;15.88;100.00;100193.88;4718496;30;20049;-44
2022/10/24 04:43:57;;;;;;;8.43;2.67;;;;;;;15.80;100.00;100195.44;4724239;30;20049;-45
2022/10/24 04:46:24;;;;;;;5.32;2.22;;;;;;;15.79;100.00;100193.03;4718835;30;20049;-45
2022/10/24 04:48:52;;;;;;;5.65;2.20;;;;;;;15.71;100.00;100197.38;4726461;30;20496;-47
2022/10/24 04:51:20;;;;;;;7.57;2.03;;;;;;;15.66;100.00;100203.78;4701650;30;20041;-49
2022/10/24 04:53:50;;;;;;;5.40;1.50;;;;;;;15.68;100.00;100193.28;4719375;30;20115;-46
2022/10/24 04:56:19;;;;;;;5.88;2.30;;;;;;;15.69;100.00;100194.91;4703888;30;20064;-46
2022/10/24 04:58:46;;;;;;;6.38;2.10;;;;;;;15.74;100.00;100197.53;4703539;30;20045;-46
2022/10/24 05:01:14;;;;;;;6.30;2.60;;;;;;;15.70;100.00;100202.03;4716820;30;20103;-46
2022/10/24 05:03:42;;;;;;;5.32;2.10;;;;;;;15.69;100.00;100200.38;4718833;30;20053;-46
2022/10/24 05:06:10;;;;;;;7.10;2.28;;;;;;;15.76;100.00;100210.97;4718849;30;20057;-49
2022/10/24 05:08:37;;;;;;;6.70;2.08;;;;;;;15.72;100.00;100209.97;4718571;30;20099;-47
2022/10/24 05:11:05;;;;;;;5.07;1.98;;;;;;;15.76;100.00;100205.47;4717285;30;20126;-49
2022/10/24 05:13:32;;;;;;;7.35;2.00;;;;;;;15.75;100.00;100203.81;4718542;30;20053;-49
2022/10/24 05:16:04;;;;;;;5.55;2.20;;;;;;;15.77;100.00;100201.56;4718422;30;20057;-51
2022/10/24 05:18:32;;;;;;;5.03;2.25;;;;;;;15.76;100.00;100195.28;4718565;30;20134;-51
2022/10/24 05:21:00;;;;;;;5.55;2.03;;;;;;;15.73;100.00;100201.41;4718108;30;20060;-51
2022/10/24 05:23:28;;;;;;;9.90;2.53;;;;;;;15.67;100.00;100208.13;4717887;30;20041;-48
2022/10/24 05:25:56;;;;;;;8.65;2.20;;;;;;;15.72;100.00;100210.75;4703285;30;20045;-48
2022/10/24 05:28:24;;;;;;;5.85;2.30;;;;;;;15.73;100.00;100212.41;4718077;30;20045;-47
2022/10/24 05:30:51;;;;;;;5.40;1.80;;;;;;;15.85;100.00;100210.97;4718457;30;20080;-47
2022/10/24 05:33:19;;;;;;;6.97;2.40;;;;;;;15.78;100.00;100227.94;4718283;30;20099;-48
2022/10/24 05:35:48;;;;;;;10.02;2.55;;;;;;;15.77;100.00;100218.84;4717691;30;20045;-47
2022/10/24 05:38:16;;;;;;;8.13;3.03;;;;;;;15.74;100.00;100216.75;4064678;30;10000684;-45
2022/10/24 05:40:46;;;;;;;5.75;2.35;;;;;;;15.75;100.00;100215.66;4699107;30;20065;-48
2022/10/24 05:43:14;;;;;;;5.45;1.85;;;;;;;15.73;100.00;100223.38;4721893;30;20127;-48
2022/10/24 05:45:42;;;;;;;10.70;2.55;;;;;;;15.86;100.00;100227.13;4723204;30;20190;-50
2022/10/24 05:48:10;;;;;;;3.65;1.60;;;;;;;15.86;100.00;100215.34;4716592;30;20488;-48
2022/10/24 05:50:37;;;;;;;7.63;2.45;;;;;;;15.87;100.00;100216.97;4714840;30;20045;-48
2022/10/24 05:53:07;;;;;;;7.80;2.53;;;;;;;15.83;100.00;100216.00;4714307;30;20049;-50
2022/10/24 05:55:35;;;;;;;7.55;2.33;;;;;;;15.75;100.00;100217.56;4715074;30;20063;-47
2022/10/24 05:58:03;;;;;;;9.98;2.72;;;;;;;15.72;100.00;100227.25;4713279;30;20056;-49
2022/10/24 06:00:32;;;;;;;6.45;1.55;;;;;;;15.81;100.00;100223.75;4698780;30;20057;-47
2022/10/24 06:03:00;;;;;;;9.93;2.33;;;;;;;15.87;100.00;100227.94;4709456;30;20673;-49
2022/10/24 06:05:28;;;;;;;7.90;2.42;;;;;;;15.87;100.00;100236.19;4717200;30;20107;-48
2022/10/24 06:07:57;;;;;;;12.57;2.38;;;;;;;15.90;100.00;100235.56;4728060;30;20044;-51
2022/10/24 06:10:25;;;;;;;8.57;2.45;;;;;;;15.85;100.00;100231.03;4717077;30;20095;-48
2022/10/24 06:12:52;;;;;;;8.10;2.10;;;;;;;15.86;100.00;100231.84;4716376;30;20064;-49
2022/10/24 06:15:20;;;;;;;8.38;2.53;;;;;;;15.80;100.00;100224.84;4715401;30;20591;-49
2022/10/24 06:17:47;;;;;;;6.05;2.00;;;;;;;15.85;100.00;100224.69;4722178;30;20095;-49
2022/10/24 06:20:15;;;;;;;4.28;2.08;;;;;;;15.93;100.00;100229.44;4714732;30;20066;-50
2022/10/24 06:22:44;;;;;;;9.65;2.40;;;;;;;15.94;100.00;100225.53;4700399;30;20115;-48
2022/10/24 06:25:13;;;;;;;8.35;2.47;;;;;;;15.95;100.00;100241.72;4719027;30;20101;-51
2022/10/24 06:27:41;;;;;;;10.45;3.35;;;;;;;15.82;100.00;100244.56;4705261;30;20593;-46
2022/10/24 06:30:10;;;;;;;9.07;2.70;;;;;;;15.72;100.00;100246.47;4718765;30;20122;-47
2022/10/24 06:32:38;;;;;;;8.07;2.53;;;;;;;15.68;100.00;100245.47;4715155;30;20794;-47
2022/10/24 06:35:13;;;;;;;5.22;2.03;;;;;;;15.71;100.00;100255.84;4707240;30;20041;-48
2022/10/24 06:37:41;;;;;;;11.00;2.95;;;;;;;15.78;100.00;100252.66;4714822;30;20405;-47
2022/10/24 06:40:15;;;;;;;276.30;61.65;;;;;;;15.79;100.00;100248.78;4715206;30;20101;-49
2022/10/24 06:42:43;;;;;;;186.60;46.90;;;;;;;15.89;100.00;100251.22;4712386;30;20501;-48
2022/10/24 06:45:11;;;;;;;313.98;74.97;;;;;;;15.85;100.00;100260.41;4708688;30;20052;-48
2022/10/24 06:47:38;;;;;;;166.00;43.67;;;;;;;15.79;100.00;100261.69;4716812;30;20071;-48
2022/10/24 06:50:06;;;;;;;286.25;60.40;;;;;;;15.94;100.00;100258.50;4717676;30;20065;-48
2022/10/24 06:52:35;;;;;;;118.57;30.75;;;;;;;15.94;100.00;100273.06;4707920;30;20169;-50
2022/10/24 06:55:03;;;;;;;45.60;13.60;;;;;;;15.81;100.00;100279.47;4698186;30;20118;-50
2022/10/24 06:57:30;;;;;;;43.92;12.10;;;;;;;15.74;100.00;100282.69;4722441;30;20520;-49
2022/10/24 06:59:58;;;;;;;51.53;13.82;;;;;;;15.79;100.00;100287.22;4718797;30;20049;-50
2022/10/24 07:02:25;;;;;;;26.20;7.78;;;;;;;15.67;100.00;100286.97;4720803;30;20467;-49
2022/10/24 07:04:53;;;;;;;59.83;15.55;;;;;;;15.71;100.00;100285.25;4715996;30;20779;-49
2022/10/24 07:07:22;;;;;;;68.05;16.13;;;;;;;15.75;100.00;100291.72;4717731;30;20080;-52
2022/10/24 07:09:55;;;;;;;26.27;6.78;;;;;;;15.70;100.00;100289.91;4720141;30;20394;-50
2022/10/24 07:12:23;;;;;;;12.13;3.40;;;;;;;15.57;97.37;100300.97;4719274;30;20056;-49
2022/10/24 07:14:51;;;;;;;16.10;3.80;;;;;;;15.56;96.44;100308.38;4715065;30;20075;-50
2022/10/24 07:17:20;;;;;;;13.65;3.30;;;;;;;15.51;96.47;100303.03;4716785;30;20099;-48
2022/10/24 07:19:54;;;;;;;13.73;3.40;;;;;;;15.53;96.06;100298.84;4716877;30;20505;-47
2022/10/24 07:22:22;;;;;;;19.23;4.55;;;;;;;15.66;100.00;100297.16;4689314;30;20060;-47
2022/10/24 07:24:56;;;;;;;20.40;5.45;;;;;;;15.77;99.78;100305.97;4716711;30;20045;-48
2022/10/24 07:27:23;;;;;;;42.28;11.82;;;;;;;15.98;100.00;100317.22;4716972;30;20080;-49
2022/10/24 07:29:52;;;;;;;39.72;10.98;;;;;;;16.04;100.00;100321.41;4716404;30;20544;-47
2022/10/24 07:32:20;;;;;;;39.97;10.98;;;;;;;15.93;100.00;100309.13;4701195;30;20505;-51
2022/10/24 07:34:48;;;;;;;30.35;9.07;;;;;;;15.90;100.00;100320.75;4717063;30;20099;-48
2022/10/24 07:37:16;;;;;;;20.75;5.70;;;;;;;15.83;100.00;100315.69;4717159;30;20049;-47
2022/10/24 07:39:45;;;;;;;37.30;10.23;;;;;;;15.87;100.00;100329.59;4716533;30;20049;-48
2022/10/24 07:42:13;;;;;;;25.95;8.55;;;;;;;15.88;100.00;100325.75;4727855;30;20135;-49
2022/10/24 07:44:41;;;;;;;25.70;7.82;;;;;;;15.89;100.00;100333.66;4716594;30;20054;-48
2022/10/24 07:47:10;;;;;;;38.30;9.75;;;;;;;15.94;100.00;100335.44;4716683;30;20057;-47
2022/10/24 07:49:38;;;;;;;38.80;9.68;;;;;;;16.06;100.00;100341.16;4701132;30;20104;-48
2022/10/24 07:52:06;;;;;;;34.95;10.57;;;;;;;16.17;100.00;100338.97;4715432;30;20061;-51
2022/10/24 07:54:33;;;;;;;19.25;5.10;;;;;;;16.26;100.00;100344.47;4716445;30;20099;-49
2022/10/24 07:57:04;;;;;;;19.95;5.80;;;;;;;16.12;100.00;100345.41;4715561;30;20670;-48
2022/10/24 07:59:31;;;;;;;23.33;7.32;;;;;;;16.02;100.00;100353.94;4716351;30;20452;-48
2022/10/24 08:02:16;;;;;;;18.70;5.75;;;;;;;16.03;100.00;100352.00;4716638;30;20107;-48
2022/10/24 08:04:43;;;;;;;17.65;5.20;;;;;;;15.91;100.00;100360.81;4700787;30;20163;-48
2022/10/24 08:07:12;;;;;;;22.65;5.85;;;;;;;15.96;100.00;100377.97;4716658;30;20049;-48
2022/10/24 08:09:45;;;;;;;21.17;6.32;;;;;;;15.97;100.00;100387.03;4716102;30;20055;-49
2022/10/24 08:12:13;;;;;;;33.85;7.40;;;;;;;16.01;100.00;100381.72;4716806;30;20049;-50
2022/10/24 08:14:41;;;;;;;25.85;6.15;;;;;;;15.95;100.00;100383.78;4716235;30;20138;-50
2022/10/24 08:17:10;;;;;;;27.33;7.63;;;;;;;15.91;100.00;100378.09;4715675;30;20083;-49
2022/10/24 08:19:41;;;;;;;13.27;4.28;;;;;;;15.92;100.00;100373.41;4716391;30;20053;-49
2022/10/24 08:22:11;;;;;;;16.27;5.30;;;;;;;15.89;100.00;100379.56;4716943;30;20049;-47
2022/10/24 08:24:39;;;;;;;24.02;6.60;;;;;;;15.91;100.00;100382.81;4716467;30;20433;-52
2022/10/24 08:27:06;;;;;;;20.45;6.55;;;;;;;15.91;100.00;100385.53;4719630;30;20061;-50
2022/10/24 08:29:34;;;;;;;15.50;4.15;;;;;;;15.92;100.00;100384.41;4719379;30;20114;-49
2022/10/24 08:32:02;;;;;;;22.83;6.72;;;;;;;16.02;100.00;100389.66;4719511;30;20178;-48
2022/10/24 08:34:30;;;;;;;15.23;4.00;;;;;;;16.11;100.00;100398.72;4719403;30;20517;-48
2022/10/24 08:36:57;;;;;;;21.85;6.07;;;;;;;16.26;100.00;100391.19;4719558;30;20037;-48
2022/10/24 08:39:25;;;;;;;22.55;6.53;;;;;;;16.38;100.00;100385.94;4719303;30;20456;-48
2022/10/24 08:41:56;;;;;;;19.95;5.55;;;;;;;16.39;100.00;100407.59;4718378;30;20060;-48
2022/10/24 08:44:39;;;;;;;20.65;6.20;;;;;;;16.23;98.61;100403.66;4718491;30;20136;-51
2022/10/24 08:47:28;;;;;;;23.08;6.75;;;;;;;16.30;100.00;100390.25;4719342;30;20057;-49
2022/10/24 08:50:09;;;;;;;15.13;4.55;;;;;;;16.24;95.59;100397.03;4717767;30;20041;-47
2022/10/24 08:52:47;;;;;;;21.60;5.55;;;;;;;16.19;99.26;100405.44;4719783;30;20072;-48
2022/10/24 08:55:22;;;;;;;14.75;4.43;;;;;;;16.12;99.41;100414.13;4703956;30;20053;-48
2022/10/24 08:58:33;;;;;;;11.75;4.20;;;;;;;16.15;98.83;100398.94;4718745;30;20128;-48
2022/10/24 09:01:04;;;;;;;16.48;4.90;;;;;;;16.29;99.41;100404.34;4719031;30;20065;-49
2022/10/24 09:03:38;;;;;;;18.67;4.75;;;;;;;16.29;98.66;100409.84;4718118;30;20104;-50
2022/10/24 09:06:25;;;;;;;15.27;4.20;;;;;;;16.31;100.00;100397.41;4729915;30;20517;-48
2022/10/24 09:09:07;;;;;;;11.32;3.40;;;;;;;16.22;94.54;100414.97;4719013;30;20057;-50
2022/10/24 09:11:54;;;;;;;10.57;2.90;;;;;;;16.30;94.82;100417.75;4714778;30;20076;-50
2022/10/24 09:14:37;;;;;;;11.93;3.42;;;;;;;16.25;91.77;100414.34;4717778;30;20053;-49
2022/10/24 09:17:24;;;;;;;15.63;3.97;;;;;;;16.35;96.54;100414.06;4720907;30;20567;-50
2022/10/24 09:19:55;;;;;;;12.13;3.50;;;;;;;16.39;94.46;100409.53;4723726;30;20053;-49
2022/10/24 09:22:24;;;;;;;11.25;3.45;;;;;;;16.33;93.81;100416.31;4718614;30;20045;-50
2022/10/24 09:25:00;;;;;;;15.52;5.25;;;;;;;16.39;94.68;100421.34;4717897;30;20053;-49
2022/10/24 09:27:32;;;;;;;12.25;3.72;;;;;;;16.41;96.59;100432.03;4719024;30;20049;-48
2022/10/24 09:30:00;;;;;;;12.75;4.15;;;;;;;16.33;94.23;100441.03;4717374;30;20037;-50
2022/10/24 09:32:30;;;;;;;12.32;3.95;;;;;;;16.34;95.57;100442.69;4718525;30;20535;-49
2022/10/24 09:35:00;;;;;;;9.45;3.20;;;;;;;16.29;90.46;100445.56;4718579;30;20571;-51
2022/10/24 09:37:34;;;;;;;16.90;4.97;;;;;;;16.50;94.90;100437.56;4717210;30;20057;-50
2022/10/24 09:40:31;;;;;;;20.17;4.47;;;;;;;16.60;94.58;100443.59;4718206;30;20048;-48
2022/10/24 09:43:21;;;;;;;13.25;3.55;;;;;;;16.54;93.20;100441.31;4703242;30;20041;-52
2022/10/24 09:46:09;;;;;;;14.35;3.90;;;;;;;16.53;91.63;100445.19;4717199;30;20107;-49
2022/10/24 09:48:55;;;;;;;11.27;2.97;;;;;;;16.42;89.31;100452.91;4717895;30;20052;-46
2022/10/24 09:51:25;;;;;;;14.93;4.85;;;;;;;16.47;93.23;100450.00;4718110;30;20109;-48
2022/10/24 09:54:19;;;;;;;11.65;3.38;;;;;;;16.57;90.50;100458.00;4716028;30;20049;-48
2022/10/24 09:56:57;;;;;;;12.13;3.45;;;;;;;16.65;93.25;100461.91;4721039;30;20582;-49
2022/10/24 09:59:41;;;;;;;13.18;3.05;;;;;;;16.67;87.41;100459.66;4720666;30;20057;-50
2022/10/24 10:02:28;;;;;;;12.13;3.08;;;;;;;16.60;89.73;100471.13;4702023;30;20053;-48
2022/10/24 10:05:02;;;;;;;10.48;2.45;;;;;;;16.49;84.99;100474.47;4715196;30;20132;-49
2022/10/24 10:07:36;;;;;;;10.25;2.67;;;;;;;16.50;88.11;100473.31;4702698;30;20060;-50
2022/10/24 10:10:24;;;;;;;16.13;3.67;;;;;;;16.48;84.32;100467.34;4717844;30;20057;-50
2022/10/24 10:12:57;;;;;;;9.57;2.53;;;;;;;16.48;83.91;100473.66;4697265;30;20057;-49
2022/10/24 10:15:44;;;;;;;16.70;3.05;;;;;;;16.50;84.02;100479.66;4716453;30;20510;-48
2022/10/24 10:18:41;;;;;;;11.13;2.92;;;;;;;16.66;92.26;100488.28;4718275;30;20471;-49
2022/10/24 10:21:17;;;;;;;9.82;3.42;;;;;;;16.76;91.08;100501.78;4702138;30;20060;-50
2022/10/24 10:23:54;;;;;;;;;;;;;;;16.69;83.87;100492.34;4718264;30;20103;-51
2022/10/24 10:26:23;;;;;;;10.25;3.17;;;;;;;16.63;84.05;100504.63;4717727;30;20334;-48
2022/10/24 10:29:02;;;;;;;12.57;3.10;;;;;;;16.67;87.38;100492.66;4717914;30;20045;-48
2022/10/24 10:31:42;;;;;;;11.98;3.72;;;;;;;16.74;87.07;100511.44;4717200;30;20472;-51
2022/10/24 10:34:52;;;;;;;14.63;3.17;;;;;;;16.73;84.06;100496.09;4719952;30;20050;-49
2022/10/24 10:37:26;;;;;;;13.95;3.92;;;;;;;16.82;88.79;100506.03;4705199;30;20412;-49
2022/10/24 10:39:59;;;;;;;15.13;3.55;;;;;;;16.81;87.52;100517.34;4701874;30;20048;-53
2022/10/24 10:42:34;;;;;;;11.02;3.15;;;;;;;16.70;86.06;100508.53;4717532;30;20045;-51
2022/10/24 10:45:29;;;;;;;12.93;3.40;;;;;;;16.68;86.28;100515.47;4703380;30;20045;-54
2022/10/24 10:48:23;;;;;;;11.95;2.97;;;;;;;16.59;85.27;100516.22;4716601;30;20148;-51
2022/10/24 10:51:04;;;;;;;10.65;3.60;;;;;;;16.59;85.40;100518.97;4717444;30;20197;-49
2022/10/24 10:53:47;;;;;;;9.73;2.90;;;;;;;16.59;85.18;100510.72;4703102;30;20524;-53
2022/10/24 10:56:46;;;;;;;14.07;3.40;;;;;;;16.75;94.66;100527.66;4715578;30;20052;-53
2022/10/24 10:59:35;;;;;;;9.60;3.33;;;;;;;16.91;92.79;100525.34;4717970;30;20496;-50
2022/10/24 11:02:16;;;;;;;7.95;3.08;;;;;;;16.89;84.64;100533.09;4690318;30;20052;-53
2022/10/24 11:05:12;;;;;;;12.65;3.20;;;;;;;17.00;86.52;100534.44;4717134;30;20049;-52
2022/10/24 11:07:47;;;;;;;11.20;3.22;;;;;;;16.93;88.96;100528.59;4716160;30;20579;-51
2022/10/24 11:10:19;;;;;;;12.63;3.58;;;;;;;16.91;88.17;100536.34;4716952;30;20408;-51
2022/10/24 11:12:47;;;;;;;14.50;3.05;;;;;;;16.78;82.78;100531.72;4720675;30;20103;-47
2022/10/24 11:15:30;;;;;;;10.02;3.20;;;;;;;16.77;84.81;100535.59;4715814;30;20060;-49
2022/10/24 11:18:10;;;;;;;13.45;3.45;;;;;;;16.78;88.56;100551.81;4715345;30;20041;-51
2022/10/24 11:21:07;;;;;;;13.90;3.00;;;;;;;16.70;84.41;100549.00;4717028;30;20049;-48
2022/10/24 11:24:01;;;;;;;13.15;3.78;;;;;;;16.76;89.38;100550.47;4699918;30;20060;-50
2022/10/24 11:26:45;;;;;;;14.77;3.70;;;;;;;16.83;93.14;100546.16;4700626;30;20045;-47
2022/10/24 11:29:49;;;;;;;13.43;3.72;;;;;;;16.85;91.78;100548.59;4720327;30;20390;-47
2022/10/24 11:32:33;;;;;;;11.75;3.22;;;;;;;16.81;89.91;100547.59;4725810;30;20132;-51
2022/10/24 11:35:23;;;;;;;14.98;3.05;;;;;;;16.83;94.00;100548.09;4715871;30;20053;-50
2022/10/24 11:37:54;;;;;;;13.13;3.35;;;;;;;16.95;94.80;100555.75;4716863;30;20049;-51
2022/10/24 11:40:23;;;;;;;11.40;3.20;;;;;;;16.98;95.55;100555.97;4716056;30;20053;-47
2022/10/24 11:43:12;;;;;;;14.40;4.43;;;;;;;17.07;98.69;100555.97;4714199;30;20060;-50
2022/10/24 11:45:59;;;;;;;18.65;4.47;;;;;;;17.04;91.89;100557.41;4716698;30;20041;-49
2022/10/24 11:48:32;;;;;;;9.70;3.00;;;;;;;17.07;92.05;100557.91;4715875;30;20091;-49
2022/10/24 11:51:19;;;;;;;16.58;3.33;;;;;;;17.09;95.63;100561.16;4716008;30;20049;-50
2022/10/24 11:53:57;;;;;;;11.77;3.10;;;;;;;17.04;87.95;100559.38;4716274;30;20045;-49
2022/10/24 11:56:40;;;;;;;19.42;4.40;;;;;;;17.09;92.02;100547.41;4726393;30;20080;-49
2022/10/24 11:59:15;;;;;;;16.60;4.10;;;;;;;17.38;97.26;100561.41;4717437;30;20450;-50
2022/10/24 12:01:57;;;;;;;14.40;3.65;;;;;;;17.31;93.55;100561.06;4702494;30;20452;-49
2022/10/24 12:04:59;;;;;;;10.68;3.65;;;;;;;17.31;96.97;100569.34;4720038;30;20057;-51
2022/10/24 12:07:55;;;;;;;12.82;3.28;;;;;;;17.27;90.80;100562.88;4719892;30;20053;-51
2022/10/24 12:10:48;;;;;;;13.25;3.45;;;;;;;17.26;90.87;100563.97;4719406;30;20588;-50
2022/10/24 12:13:34;;;;;;;15.50;3.50;;;;;;;17.19;89.56;100564.44;4709691;30;20084;-49